Time;durP1;ratioP1;P1;durP2;ratioP2;P2;SDS_P1;SDS_P2;PMS_P1;PMS_P2;Temp;Humidity;BMP_temperature;BMP_pressure;BME280_temperature;BME280_humidity;BME280_pressure;Samples;Min_cycle;Max_cycle;Signal;HPM_P1;HPM_P2
2022/02/07 00:01:31;;;;;;;12.88;5.38;;;1.70;83.20;;;;;;4890155;29;20037;-81
2022/02/07 00:03:58;;;;;;;9.55;5.30;;;1.60;83.50;;;;;;4867045;29;20033;-82
2022/02/07 00:06:24;;;;;;;9.15;5.18;;;1.60;83.50;;;;;;4881558;29;20033;-79
2022/02/07 00:08:52;;;;;;;12.70;5.43;;;1.60;83.60;;;;;;4865252;29;20041;-82
2022/02/07 00:11:19;;;;;;;9.43;5.25;;;1.50;83.60;;;;;;4867987;29;20033;-79
2022/02/07 00:13:44;;;;;;;10.68;5.95;;;1.50;83.90;;;;;;4868105;29;20029;-78
2022/02/07 00:16:11;;;;;;;11.80;6.00;;;1.40;84.10;;;;;;4883295;29;20035;-80
2022/02/07 00:18:38;;;;;;;10.68;5.20;;;1.40;84.40;;;;;;4865442;29;20033;-79
2022/02/07 00:21:06;;;;;;;10.65;5.80;;;1.30;84.50;;;;;;4865699;29;20416;-80
2022/02/07 00:23:32;;;;;;;11.25;5.65;;;1.30;84.80;;;;;;4882382;29;20056;-79
2022/02/07 00:25:59;;;;;;;8.95;5.55;;;1.30;84.90;;;;;;4865684;29;20029;-80
2022/02/07 00:28:25;;;;;;;9.68;5.53;;;1.20;85.00;;;;;;4850636;29;20041;-81
2022/02/07 00:30:52;;;;;;;9.80;5.13;;;1.20;85.10;;;;;;4865384;29;20033;-80
2022/02/07 00:33:20;;;;;;;9.38;5.57;;;1.20;85.30;;;;;;4881682;29;20084;-80
2022/02/07 00:35:46;;;;;;;9.95;5.40;;;1.20;85.50;;;;;;4865808;29;20036;-81
2022/02/07 00:38:17;;;;;;;10.27;5.63;;;1.10;85.40;;;;;;4873309;29;20411;-81
2022/02/07 00:43:26;;;;;;;9.93;5.53;;;1.10;85.50;;;;;;4900422;29;20028;-80
2022/02/07 00:45:55;;;;;;;12.63;6.30;;;1.10;85.70;;;;;;4900423;29;20063;-80
2022/02/07 00:48:24;;;;;;;10.63;5.88;;;1.10;85.60;;;;;;4899194;29;20047;-80
2022/02/07 00:50:51;;;;;;;10.35;5.55;;;1.10;85.60;;;;;;4883585;29;20031;-81
2022/02/07 00:53:17;;;;;;;8.05;4.97;;;1.00;85.60;;;;;;4882303;29;20379;-80
2022/02/07 00:55:42;;;;;;;12.70;5.93;;;1.00;85.60;;;;;;4869873;29;20132;-79
2022/02/07 00:58:10;;;;;;;10.55;6.00;;;1.00;85.70;;;;;;4900439;29;20119;-81
2022/02/07 01:00:37;;;;;;;10.40;5.60;;;0.90;85.90;;;;;;4883610;29;20048;-80
2022/02/07 01:03:02;;;;;;;9.80;5.43;;;0.90;86.00;;;;;;4883443;29;20025;-81
2022/02/07 01:05:28;;;;;;;10.57;5.68;;;0.90;86.00;;;;;;4880877;29;20543;-82
2022/02/07 01:07:57;;;;;;;10.57;5.45;;;0.90;86.20;;;;;;4869596;29;20040;-81
2022/02/07 01:10:28;;;;;;;11.32;5.97;;;0.80;86.40;;;;;;4899556;29;20031;-80
2022/02/07 01:48:29;;;;;;;18.23;10.05;;;0.30;90.30;;;;;;4899703;29;20044;-79
2022/02/07 01:51:15;;;;;;;17.42;8.75;;;0.30;90.60;;;;;;4899151;29;20039;-79
2022/02/07 01:53:55;;;;;;;13.65;7.90;;;0.30;90.70;;;;;;4899612;29;20068;-80
2022/02/07 01:56:28;;;;;;;12.23;7.30;;;0.30;90.70;;;;;;4882807;29;20064;-80
2022/02/07 01:58:54;;;;;;;12.25;7.35;;;0.40;90.90;;;;;;4882075;29;20499;-80
2022/02/07 02:01:20;;;;;;;13.63;7.20;;;0.40;90.70;;;;;;4898243;29;20071;-80
2022/02/07 02:03:45;;;;;;;15.13;7.53;;;0.40;90.70;;;;;;4881703;29;20071;-80
2022/02/07 02:06:12;;;;;;;16.27;8.50;;;0.50;90.60;;;;;;4881917;29;20040;-80
2022/02/07 02:08:39;;;;;;;14.60;8.10;;;0.50;90.50;;;;;;4881487;29;20048;-80
2022/02/07 02:11:04;;;;;;;15.73;8.20;;;0.50;90.50;;;;;;4901425;29;20452;-80
2022/02/07 02:16:29;;;;;;;15.32;8.70;;;0.60;90.50;;;;;;4899638;29;20091;-81
2022/02/07 02:33:06;;;;;;;12.73;7.70;;;0.60;90.50;;;;;;4899438;29;20040;-80
2022/02/07 02:38:18;;;;;;;15.05;8.13;;;0.60;90.70;;;;;;4898404;29;20482;-80
2022/02/07 02:46:19;;;;;;;15.18;8.13;;;0.60;90.90;;;;;;4898076;29;20103;-81
2022/02/07 02:48:45;;;;;;;13.48;8.15;;;0.60;91.00;;;;;;4867496;29;20041;-81
2022/02/07 02:51:11;;;;;;;15.32;8.32;;;0.50;91.10;;;;;;4881267;29;20044;-81
2022/02/07 02:53:37;;;;;;;12.77;7.97;;;0.50;91.30;;;;;;4881069;29;20495;-81
2022/02/07 02:56:03;;;;;;;15.02;9.15;;;0.50;91.50;;;;;;4866472;29;20387;-81
2022/02/07 02:58:30;;;;;;;19.23;9.17;;;0.50;91.70;;;;;;4830353;29;1516255;-81
2022/02/07 03:00:56;;;;;;;15.50;9.20;;;0.50;91.80;;;;;;4882585;29;20059;-81
2022/02/07 03:03:22;;;;;;;14.95;8.57;;;0.50;91.70;;;;;;4882577;29;20408;-81
2022/02/07 03:05:48;;;;;;;16.98;8.10;;;0.50;91.70;;;;;;4867875;29;20036;-81
2022/02/07 03:08:16;;;;;;;13.15;7.75;;;0.50;92.00;;;;;;4899234;29;20056;-81
2022/02/07 03:10:54;;;;;;;14.35;8.50;;;0.40;91.90;;;;;;4900803;29;20032;-80
2022/02/07 03:18:33;;;;;;;14.73;8.35;;;0.50;92.00;;;;;;4899624;29;20121;-80
2022/02/07 03:20:59;;;;;;;13.98;8.02;;;0.50;92.00;;;;;;4882903;29;20108;-81
2022/02/07 03:23:26;;;;;;;13.50;7.82;;;0.50;91.90;;;;;;4882482;29;20123;-81
2022/02/07 03:25:53;;;;;;;13.80;7.78;;;0.50;92.10;;;;;;4866595;29;20052;-81
2022/02/07 03:28:21;;;;;;;12.98;8.00;;;0.50;92.30;;;;;;4881986;29;20484;-81
2022/02/07 03:30:46;;;;;;;13.38;8.38;;;0.50;92.10;;;;;;4898893;29;20040;-81
2022/02/07 03:33:13;;;;;;;11.98;7.63;;;0.50;92.10;;;;;;4881539;29;20040;-81
2022/02/07 03:35:39;;;;;;;12.20;7.97;;;0.50;92.00;;;;;;4867936;29;20084;-81
2022/02/07 03:38:06;;;;;;;13.50;7.55;;;0.60;92.10;;;;;;4886243;29;20386;-80
2022/02/07 03:40:32;;;;;;;13.07;7.60;;;0.50;92.20;;;;;;4886077;29;20040;-80
2022/02/07 03:42:58;;;;;;;11.82;7.03;;;0.60;92.00;;;;;;4900569;29;20025;-80
2022/02/07 03:45:24;;;;;;;15.27;8.05;;;0.60;91.90;;;;;;4884881;29;20032;-80
2022/02/07 03:47:52;;;;;;;12.50;6.97;;;0.60;92.00;;;;;;4884498;29;20028;-82
2022/02/07 03:50:18;;;;;;;12.40;7.90;;;0.60;92.00;;;;;;4885265;29;20452;-81
2022/02/07 03:52:43;;;;;;;13.65;8.38;;;0.60;92.00;;;;;;4884529;29;20035;-81
2022/02/07 03:55:09;;;;;;;14.90;7.65;;;0.60;92.00;;;;;;4885488;29;20519;-81
2022/02/07 03:57:35;;;;;;;12.75;8.05;;;0.60;91.90;;;;;;4884833;29;20475;-81
2022/02/07 04:00:05;;;;;;;17.15;8.55;;;0.60;92.00;;;;;;4901681;29;20061;-81
2022/02/07 04:02:33;;;;;;;13.93;7.38;;;0.60;92.10;;;;;;4885158;29;20556;-80
2022/02/07 04:05:19;;;;;;;15.80;8.63;;;0.70;92.00;;;;;;4875604;29;20463;-81
2022/02/07 04:07:44;;;;;;;14.13;8.15;;;0.70;92.00;;;;;;4901679;29;20448;-80
2022/02/07 04:10:11;;;;;;;14.65;8.55;;;0.60;92.00;;;;;;4902963;29;20039;-78
2022/02/07 04:12:40;;;;;;;16.25;8.68;;;0.60;92.00;;;;;;4887729;29;20029;-79
2022/02/07 04:15:09;;;;;;;20.00;10.77;;;0.60;92.00;;;;;;4886349;29;20033;-81
2022/02/07 04:17:42;;;;;;;17.77;10.82;;;0.60;92.10;;;;;;4901669;29;20033;-80
2022/02/07 04:20:08;;;;;;;16.08;9.85;;;0.60;92.20;;;;;;4900377;29;20024;-80
2022/02/07 04:22:33;;;;;;;21.05;12.80;;;0.60;92.20;;;;;;4865645;29;20040;-81
2022/02/07 04:24:59;;;;;;;27.08;15.75;;;0.60;92.40;;;;;;4881472;29;20029;-81
2022/02/07 04:27:25;;;;;;;24.58;16.17;;;0.60;92.30;;;;;;4865726;29;20045;-81
2022/02/07 04:29:51;;;;;;;27.55;15.73;;;0.60;92.40;;;;;;4882419;29;20061;-81
2022/02/07 04:32:17;;;;;;;27.08;16.52;;;0.60;92.40;;;;;;4883993;29;20117;-81
2022/02/07 04:34:43;;;;;;;24.55;16.35;;;0.60;92.50;;;;;;4881828;29;20381;-81
2022/02/07 04:37:09;;;;;;;23.25;14.80;;;0.60;92.60;;;;;;4865410;29;20101;-81
2022/02/07 04:39:35;;;;;;;22.15;14.77;;;0.60;92.60;;;;;;4883220;29;20039;-81
2022/02/07 04:42:05;;;;;;;21.40;13.55;;;0.60;92.60;;;;;;4885161;29;20085;-80
2022/02/07 04:44:38;;;;;;;22.70;13.67;;;0.70;92.60;;;;;;4865488;29;20033;-81
2022/02/07 04:47:32;;;;;;;21.77;12.38;;;0.70;92.40;;;;;;4864713;29;20574;-81
2022/02/07 04:50:09;;;;;;;21.77;13.15;;;0.70;92.40;;;;;;4888268;29;20111;-82
2022/02/07 04:55:39;;;;;;;28.80;17.35;;;0.70;92.20;;;;;;4900260;29;20028;-81
2022/02/07 05:01:46;;;;;;;26.75;13.88;;;0.80;92.20;;;;;;4899781;29;20497;-81
2022/02/07 05:03:50;;;;;;;25.08;13.45;;;0.80;92.10;;;;;;4887148;29;20048;-82
2022/02/07 05:14:35;;;;;;;17.48;10.55;;;1.00;91.60;;;;;;4901262;29;20592;-84
2022/02/07 05:17:03;;;;;;;15.95;9.40;;;1.00;91.50;;;;;;4884568;29;20095;-82
2022/02/07 05:19:28;;;;;;;20.15;12.70;;;1.00;91.40;;;;;;4883780;29;20032;-81
2022/02/07 05:21:54;;;;;;;31.17;16.92;;;1.00;91.20;;;;;;4898754;29;20032;-83
2022/02/07 05:24:21;;;;;;;27.52;15.45;;;1.10;91.10;;;;;;4899810;29;20064;-85
2022/02/07 05:26:47;;;;;;;24.65;14.02;;;1.10;91.00;;;;;;4899271;29;20060;-84
2022/02/07 05:29:12;;;;;;;21.15;11.50;;;1.10;91.00;;;;;;4882765;29;20068;-84
2022/02/07 05:31:38;;;;;;;21.50;10.98;;;1.10;90.90;;;;;;4897848;29;20029;-84
2022/02/07 05:34:06;;;;;;;22.02;11.27;;;1.20;90.80;;;;;;4899622;29;20486;-82
2022/02/07 05:36:32;;;;;;;17.45;10.02;;;1.20;90.70;;;;;;4898890;29;20033;-83
2022/02/07 05:39:01;;;;;;;18.80;10.38;;;1.20;90.60;;;;;;4898135;29;20037;-86
2022/02/07 05:41:26;;;;;;;18.92;10.23;;;1.20;90.50;;;;;;4897192;29;20033;-83
2022/02/07 05:43:52;;;;;;;18.60;9.93;;;1.30;90.50;;;;;;4900411;29;20092;-89
2022/02/07 05:46:19;;;;;;;15.02;9.07;;;1.20;90.30;;;;;;4882784;29;20029;-84
2022/02/07 05:48:45;;;;;;;13.85;8.35;;;1.20;90.20;;;;;;4882863;29;20483;-82
2022/02/07 05:51:11;;;;;;;13.75;7.90;;;1.30;90.20;;;;;;4881201;29;20120;-83
2022/02/07 05:53:37;;;;;;;14.20;8.20;;;1.20;90.10;;;;;;4897931;29;20025;-84
2022/02/07 05:56:03;;;;;;;15.30;8.57;;;1.20;90.00;;;;;;4881545;29;20032;-86
2022/02/07 05:58:29;;;;;;;12.02;7.80;;;1.20;90.00;;;;;;4879312;29;20060;-85
2022/02/07 06:00:55;;;;;;;14.10;8.23;;;1.20;90.00;;;;;;4880724;29;20120;-87
2022/02/07 06:03:22;;;;;;;11.82;7.80;;;1.20;90.00;;;;;;4883258;29;20383;-81
2022/02/07 06:05:49;;;;;;;13.80;8.40;;;1.20;89.30;;;;;;4898297;29;20035;-81
2022/02/07 06:08:16;;;;;;;13.77;8.35;;;1.30;88.90;;;;;;4885358;29;20131;-80
2022/02/07 06:10:43;;;;;;;112.78;57.88;;;1.30;88.50;;;;;;4884519;29;20039;-81
2022/02/07 06:13:14;;;;;;;28.90;14.43;;;1.20;88.50;;;;;;4883959;29;20036;-83
2022/02/07 06:15:40;;;;;;;17.27;10.10;;;1.20;88.40;;;;;;4901287;29;20076;-80
2022/02/07 06:18:06;;;;;;;14.95;8.88;;;1.20;88.70;;;;;;4883664;29;20075;-83
2022/02/07 06:20:32;;;;;;;14.80;8.57;;;1.20;89.00;;;;;;4882133;29;20068;-82
2022/02/07 06:22:57;;;;;;;18.45;10.10;;;1.20;89.60;;;;;;4881996;29;20025;-81
2022/02/07 06:25:23;;;;;;;22.33;11.52;;;1.10;89.60;;;;;;4898827;29;20028;-83
2022/02/07 06:27:51;;;;;;;21.42;12.05;;;1.10;90.00;;;;;;4898557;29;20108;-90
2022/02/07 06:30:16;;;;;;;20.88;11.52;;;1.10;90.10;;;;;;4898618;29;20043;-80
2022/02/07 06:32:42;;;;;;;25.65;12.15;;;1.10;90.10;;;;;;4882099;29;20400;-80
2022/02/07 06:35:08;;;;;;;33.00;16.15;;;1.10;90.20;;;;;;4882030;29;20025;-81
2022/02/07 06:37:40;;;;;;;34.53;15.75;;;1.10;90.20;;;;;;4881820;29;20036;-80
2022/02/07 06:40:08;;;;;;;39.45;17.33;;;1.10;90.40;;;;;;4882582;29;20040;-80
2022/02/07 06:42:34;;;;;;;32.20;15.10;;;1.10;90.50;;;;;;4881901;29;20028;-82
2022/02/07 06:45:00;;;;;;;26.80;12.57;;;1.10;90.60;;;;;;4880844;29;20055;-81
2022/02/07 06:47:28;;;;;;;20.88;11.48;;;1.20;90.60;;;;;;4878745;29;20029;-82
2022/02/07 06:49:54;;;;;;;18.85;9.77;;;1.20;90.50;;;;;;4877526;29;20036;-82
2022/02/07 06:52:23;;;;;;;19.02;10.43;;;1.20;90.40;;;;;;4877992;29;20033;-82
2022/02/07 06:54:51;;;;;;;23.25;12.32;;;1.30;90.50;;;;;;4877786;29;20490;-82
2022/02/07 06:57:20;;;;;;;25.00;13.30;;;1.30;90.30;;;;;;4878700;29;20055;-81
2022/02/07 06:59:47;;;;;;;28.92;14.43;;;1.30;90.40;;;;;;4896090;29;20044;-82
2022/02/07 07:02:13;;;;;;;26.13;13.63;;;1.30;90.20;;;;;;4897285;29;20020;-81
2022/02/07 07:04:39;;;;;;;28.40;13.68;;;1.40;90.10;;;;;;4882558;29;20028;-81
2022/02/07 07:07:05;;;;;;;23.23;12.20;;;1.40;89.80;;;;;;4902238;29;20039;-81
2022/02/07 07:09:33;;;;;;;27.42;13.65;;;1.50;89.10;;;;;;4899939;29;20064;-81
2022/02/07 07:12:04;;;;;;;36.90;16.33;;;1.60;88.30;;;;;;4884774;29;20032;-81
2022/02/07 07:14:43;;;;;;;30.77;17.00;;;1.60;88.10;;;;;;4903050;29;20032;-81
2022/02/07 07:17:09;;;;;;;25.35;12.95;;;1.60;87.80;;;;;;4902409;29;20025;-82
2022/02/07 07:19:35;;;;;;;21.02;12.88;;;1.70;87.90;;;;;;4886213;29;20433;-81
2022/02/07 07:22:01;;;;;;;22.55;11.90;;;1.80;87.50;;;;;;4885544;29;20028;-82
2022/02/07 07:24:27;;;;;;;21.45;12.32;;;1.90;87.30;;;;;;4902313;29;20033;-81
2022/02/07 07:26:53;;;;;;;22.65;12.10;;;2.00;86.90;;;;;;4885327;29;20029;-81
2022/02/07 07:29:24;;;;;;;22.08;11.98;;;2.00;85.90;;;;;;4885837;29;20041;-81
2022/02/07 07:31:55;;;;;;;27.55;12.02;;;2.10;85.40;;;;;;4902225;29;20028;-81
2022/02/07 07:34:22;;;;;;;23.52;12.35;;;2.20;85.20;;;;;;4886477;29;20392;-82
2022/02/07 07:36:47;;;;;;;26.33;14.13;;;2.20;84.90;;;;;;4901955;29;20035;-81
2022/02/07 07:39:15;;;;;;;28.83;15.23;;;2.30;83.90;;;;;;4885194;29;20040;-81
2022/02/07 07:41:42;;;;;;;25.50;14.18;;;2.40;83.50;;;;;;4885135;29;20039;-82
2022/02/07 07:44:08;;;;;;;24.40;12.90;;;2.40;83.40;;;;;;4901792;29;20028;-81
2022/02/07 07:46:35;;;;;;;21.90;11.20;;;2.50;83.20;;;;;;4884881;29;20391;-82
2022/02/07 07:49:06;;;;;;;18.45;8.82;;;2.50;82.40;;;;;;4885414;29;20119;-81
2022/02/07 07:51:43;;;;;;;15.77;8.18;;;2.70;83.40;;;;;;4901344;29;20028;-81
2022/02/07 08:02:11;;;;;;;15.18;8.30;;;3.00;81.30;;;;;;4904251;29;20085;-80
2022/02/07 08:04:40;;;;;;;16.20;8.57;;;3.10;80.10;;;;;;4887464;29;20115;-82
2022/02/07 08:07:17;;;;;;;31.35;15.85;;;3.10;79.80;;;;;;4882233;29;20029;-81
2022/02/07 08:12:28;;;;;;;34.58;16.55;;;3.10;78.70;;;;;;4900831;29;20047;-83
2022/02/07 08:14:55;;;;;;;21.95;11.27;;;3.10;78.10;;;;;;4884104;29;20428;-84
2022/02/07 08:17:22;;;;;;;20.30;9.15;;;3.20;77.60;;;;;;4885277;29;20383;-84
2022/02/07 08:19:51;;;;;;;15.60;8.55;;;3.10;77.80;;;;;;4905646;29;20037;-85
2022/02/07 08:22:17;;;;;;;14.27;7.55;;;3.10;77.20;;;;;;4884551;29;20028;-84
2022/02/07 08:24:45;;;;;;;21.08;10.45;;;3.20;77.70;;;;;;4882194;29;20033;-84
2022/02/07 08:27:11;;;;;;;18.55;10.10;;;3.20;77.50;;;;;;4901328;29;20043;-85
2022/02/07 08:29:37;;;;;;;22.25;12.18;;;3.20;77.50;;;;;;4884048;29;20119;-85
2022/02/07 08:32:03;;;;;;;18.95;10.18;;;3.10;77.70;;;;;;4883906;29;20032;-84
2022/02/07 08:34:29;;;;;;;15.95;9.02;;;3.10;77.90;;;;;;4901448;29;20375;-85
2022/02/07 08:36:55;;;;;;;15.52;8.80;;;3.00;78.30;;;;;;4897913;29;20456;-85
2022/02/07 08:39:21;;;;;;;15.82;8.30;;;2.90;79.10;;;;;;4899838;29;20482;-85
2022/02/07 08:41:47;;;;;;;13.10;8.23;;;2.80;80.10;;;;;;4882999;29;20041;-85
2022/02/07 08:44:13;;;;;;;16.50;8.75;;;2.80;81.20;;;;;;4900601;29;20380;-83
2022/02/07 08:46:38;;;;;;;15.25;8.25;;;2.80;81.30;;;;;;4897549;29;20468;-83
2022/02/07 08:49:04;;;;;;;14.80;8.10;;;2.70;81.60;;;;;;4886505;29;20085;-83
2022/02/07 08:51:32;;;;;;;15.88;8.40;;;2.70;82.30;;;;;;4900648;29;20032;-86
2022/02/07 08:54:04;;;;;;;14.25;7.15;;;2.70;82.60;;;;;;4900394;29;20395;-84
2022/02/07 08:59:40;;;;;;;11.80;6.50;;;2.60;84.20;;;;;;4864917;29;20054;-83
2022/02/07 09:07:14;;;;;;;17.70;8.38;;;2.50;84.40;;;;;;4871130;29;20059;-87
2022/02/07 09:09:43;;;;;;;20.40;9.40;;;2.60;85.10;;;;;;4887729;29;20040;-89
2022/02/07 09:12:09;;;;;;;16.73;8.57;;;2.60;85.10;;;;;;4879367;29;20065;-87
2022/02/07 09:14:43;;;;;;;13.15;7.78;;;2.60;85.10;;;;;;4899838;29;20028;-85
2022/02/07 09:17:08;;;;;;;15.68;7.60;;;2.50;85.00;;;;;;4886974;29;20036;-84
2022/02/07 09:19:36;;;;;;;18.90;9.77;;;2.50;85.40;;;;;;4882665;29;20035;-87
2022/02/07 09:22:05;;;;;;;21.38;9.77;;;2.50;86.20;;;;;;4901512;29;20456;-91
2022/02/07 09:24:31;;;;;;;24.67;10.93;;;2.60;86.00;;;;;;4884351;29;20032;-92
2022/02/07 09:26:57;;;;;;;22.08;11.35;;;2.60;86.20;;;;;;4885316;29;20053;-93
2022/02/07 09:29:23;;;;;;;21.10;10.70;;;2.60;86.00;;;;;;4904002;29;20047;-84
2022/02/07 09:31:49;;;;;;;19.67;10.48;;;2.70;86.40;;;;;;4903824;29;20468;-89
2022/02/07 09:34:17;;;;;;;22.05;11.63;;;2.70;88.10;;;;;;4878318;29;20036;-90
2022/02/07 09:36:43;;;;;;;37.35;18.73;;;2.80;88.50;;;;;;4894744;29;20063;-91
2022/02/07 09:39:09;;;;;;;32.92;15.85;;;2.90;87.50;;;;;;4897544;29;20072;-89
2022/02/07 09:41:37;;;;;;;34.67;17.98;;;3.00;86.50;;;;;;4893766;29;20215;-91
2022/02/07 09:44:05;;;;;;;33.35;17.58;;;3.20;86.10;;;;;;4882842;29;20060;-88
2022/02/07 09:46:43;;;;;;;33.15;17.13;;;3.20;85.40;;;;;;4906255;29;20057;-88
2022/02/07 09:49:11;;;;;;;30.10;15.48;;;3.30;85.00;;;;;;4897069;29;20056;-84
2022/02/07 09:51:37;;;;;;;30.40;15.20;;;3.30;84.80;;;;;;4866331;29;20028;-90
2022/02/07 09:54:03;;;;;;;26.38;14.07;;;3.40;84.40;;;;;;4878066;29;20032;-89
2022/02/07 09:56:29;;;;;;;23.77;13.35;;;3.50;84.90;;;;;;4879967;29;20037;-86
2022/02/07 09:58:54;;;;;;;27.08;14.80;;;3.60;84.20;;;;;;4882649;29;20056;-86
2022/02/07 10:01:36;;;;;;;25.30;14.02;;;3.70;83.90;;;;;;4881546;29;20025;-84
2022/02/07 10:04:10;;;;;;;28.58;14.45;;;3.70;84.10;;;;;;4889836;29;20063;-86
2022/02/07 10:20:11;;;;;;;52.65;25.27;;;4.10;81.70;;;;;;4894254;29;20050;-87
2022/02/07 10:44:48;;;;;;;30.55;15.77;;;4.40;79.70;;;;;;4859943;29;20053;-84
2022/02/07 10:50:07;;;;;;;19.13;10.45;;;4.50;80.20;;;;;;4886946;29;20052;-85
2022/02/07 10:52:50;;;;;;;17.98;9.60;;;4.60;79.80;;;;;;4900092;29;20053;-83
2022/02/07 10:55:30;;;;;;;15.43;9.52;;;4.70;79.60;;;;;;4881232;29;20028;-84
2022/02/07 10:57:59;;;;;;;16.98;9.88;;;4.70;79.20;;;;;;4876529;29;20074;-83
2022/02/07 11:00:32;;;;;;;17.63;9.90;;;4.80;78.70;;;;;;4875486;29;20475;-83
2022/02/07 11:05:32;;;;;;;15.77;9.65;;;4.70;78.20;;;;;;4894640;29;20063;-84
2022/02/07 11:08:17;;;;;;;16.35;9.50;;;4.70;77.90;;;;;;4892672;29;20112;-85
2022/02/07 11:13:49;;;;;;;18.20;9.70;;;4.70;76.60;;;;;;4890459;29;20100;-84
2022/02/07 11:21:43;;;;;;;17.58;10.48;;;4.50;75.70;;;;;;4882867;29;20035;-85
2022/02/07 11:27:30;;;;;;;205.80;110.90;;;4.40;76.50;;;;;;4883179;29;20586;-82
2022/02/07 11:29:57;;;;;;;55.17;28.77;;;4.40;76.90;;;;;;4881736;29;20036;-85
2022/02/07 11:32:42;;;;;;;28.83;16.08;;;4.30;77.20;;;;;;4885032;29;20029;-82
2022/02/07 11:35:17;;;;;;;25.58;13.75;;;4.40;77.30;;;;;;4900348;29;20580;-85
2022/02/07 11:37:49;;;;;;;21.00;11.88;;;4.40;77.90;;;;;;4892896;29;20048;-82
2022/02/07 11:40:26;;;;;;;18.40;10.90;;;4.40;78.10;;;;;;4891434;29;20360;-80
2022/02/07 11:43:25;;;;;;;17.40;10.68;;;4.40;78.30;;;;;;4894306;29;20033;-81
2022/02/07 11:45:57;;;;;;;20.95;11.68;;;4.40;78.50;;;;;;4878133;29;20483;-81
2022/02/07 11:48:25;;;;;;;17.92;11.20;;;4.40;78.70;;;;;;4883437;29;20033;-81
2022/02/07 11:50:54;;;;;;;19.75;11.10;;;4.30;79.30;;;;;;4881901;29;20127;-82
2022/02/07 11:53:26;;;;;;;17.83;10.40;;;4.30;79.50;;;;;;4898805;29;20085;-81
2022/02/07 11:56:16;;;;;;;17.50;9.07;;;4.20;79.90;;;;;;4900974;29;20028;-80
2022/02/07 11:58:51;;;;;;;18.00;9.03;;;4.30;80.00;;;;;;4900972;29;20059;-80
2022/02/07 12:01:41;;;;;;;19.42;9.50;;;4.20;80.20;;;;;;4882161;29;20041;-79
2022/02/07 12:04:10;;;;;;;17.50;8.35;;;4.10;80.70;;;;;;4882998;29;20028;-81
2022/02/07 12:06:36;;;;;;;15.68;8.52;;;4.00;80.90;;;;;;4901176;29;20041;-81
2022/02/07 12:09:03;;;;;;;15.75;9.10;;;3.90;81.60;;;;;;4884140;29;20484;-80
2022/02/07 12:11:46;;;;;;;15.80;9.57;;;3.80;82.60;;;;;;4884248;29;20035;-80
2022/02/07 12:14:32;;;;;;;14.73;8.85;;;3.80;84.90;;;;;;4901361;29;20029;-81
2022/02/07 12:17:00;;;;;;;14.93;9.13;;;3.60;86.10;;;;;;4900747;29;20033;-81
2022/02/07 12:19:37;;;;;;;14.80;7.93;;;3.40;87.80;;;;;;4883769;29;20033;-81
2022/02/07 12:22:19;;;;;;;13.13;8.85;;;3.40;88.90;;;;;;4883737;29;20032;-82
2022/02/07 12:24:57;;;;;;;;;;;3.30;90.20;;;;;;4901297;29;20471;-81
2022/02/07 12:27:25;;;;;;;16.92;9.55;;;3.20;91.00;;;;;;4899410;29;19914;-80
2022/02/07 12:30:17;;;;;;;14.50;9.18;;;3.20;91.80;;;;;;4883681;29;20048;-82
2022/02/07 12:32:46;;;;;;;15.05;8.93;;;3.10;92.70;;;;;;4900752;29;20029;-81
2022/02/07 12:35:12;;;;;;;16.13;9.00;;;3.10;93.30;;;;;;4883844;29;20115;-80
2022/02/07 12:37:39;;;;;;;18.23;9.90;;;3.00;93.70;;;;;;4900312;29;20386;-81
2022/02/07 12:40:08;;;;;;;14.77;9.10;;;3.00;94.90;;;;;;4900301;29;20161;-81
2022/02/07 12:42:35;;;;;;;14.27;8.20;;;3.00;94.80;;;;;;4900134;29;20029;-81
2022/02/07 12:45:03;;;;;;;16.00;9.32;;;2.90;95.20;;;;;;4883398;29;20134;-81
2022/02/07 12:47:30;;;;;;;17.00;10.02;;;2.90;95.00;;;;;;4883275;29;20032;-80
2022/02/07 12:50:10;;;;;;;16.73;9.52;;;2.90;95.20;;;;;;4883124;29;20033;-81
2022/02/07 12:52:37;;;;;;;16.33;9.57;;;2.80;96.50;;;;;;4883065;29;20088;-80
2022/02/07 12:55:05;;;;;;;17.02;10.10;;;2.80;96.50;;;;;;4883798;29;20088;-81
2022/02/07 12:57:38;;;;;;;18.02;10.48;;;2.80;96.30;;;;;;4900874;29;20029;-81
2022/02/07 13:00:06;;;;;;;21.52;12.48;;;2.80;96.50;;;;;;4901033;29;20484;-81
2022/02/07 13:02:32;;;;;;;28.30;14.18;;;2.80;96.90;;;;;;4883485;29;20041;-81
2022/02/07 13:04:58;;;;;;;29.02;15.20;;;2.80;97.60;;;;;;4883400;29;20493;-80
2022/02/07 13:07:25;;;;;;;36.40;17.58;;;2.80;97.40;;;;;;4882837;29;20021;-81
2022/02/07 13:09:56;;;;;;;34.35;17.35;;;2.80;98.00;;;;;;4882709;29;20100;-81
2022/02/07 13:12:38;;;;;;;35.15;17.58;;;2.90;98.30;;;;;;4882974;29;20460;-81
2022/02/07 13:15:13;;;;;;;30.48;14.65;;;2.80;98.50;;;;;;4899822;29;20036;-81
2022/02/07 13:17:39;;;;;;;27.63;15.05;;;2.90;98.80;;;;;;4868610;29;20044;-80
2022/02/07 13:20:10;;;;;;;24.48;14.57;;;2.90;99.60;;;;;;4882889;29;20431;-80
2022/02/07 13:22:35;;;;;;;23.33;13.43;;;2.90;99.90;;;;;;4882569;29;20081;-81
2022/02/07 13:25:01;;;;;;;23.08;12.95;;;2.90;99.90;;;;;;4899582;29;20184;-81
2022/02/07 13:27:27;;;;;;;20.35;12.77;;;3.00;99.90;;;;;;4882862;29;20476;-80
2022/02/07 13:29:57;;;;;;;20.48;11.35;;;3.20;99.90;;;;;;4882666;29;20157;-79
2022/02/07 13:32:29;;;;;;;29.60;12.68;;;3.40;99.90;;;;;;4882573;29;20081;-81
2022/02/07 13:35:10;;;;;;;20.02;11.13;;;3.60;99.90;;;;;;4899586;29;20352;-81
2022/02/07 13:37:39;;;;;;;26.95;12.80;;;3.70;99.90;;;;;;4882151;29;20044;-81
2022/02/07 13:40:07;;;;;;;21.58;12.40;;;3.70;99.90;;;;;;4882319;29;20420;-81
2022/02/07 13:42:38;;;;;;;20.83;11.65;;;3.70;99.90;;;;;;4882694;29;20028;-82
2022/02/07 13:45:09;;;;;;;24.08;12.70;;;3.60;99.90;;;;;;4882395;29;20071;-81
2022/02/07 13:47:37;;;;;;;20.23;12.00;;;3.50;99.90;;;;;;4899628;29;20490;-80
2022/02/07 13:50:10;;;;;;;22.52;13.48;;;3.40;99.90;;;;;;4899376;29;20033;-80
2022/02/07 13:52:42;;;;;;;22.98;12.63;;;3.40;99.90;;;;;;4882585;29;20068;-82
2022/02/07 13:55:09;;;;;;;24.13;13.30;;;3.30;99.90;;;;;;4882707;29;20538;-81
2022/02/07 13:57:35;;;;;;;33.17;16.00;;;3.30;99.90;;;;;;4898855;29;20036;-82
2022/02/07 14:00:13;;;;;;;32.50;16.30;;;3.30;99.90;;;;;;4898728;29;20048;-80
2022/02/07 14:02:42;;;;;;;34.47;18.27;;;3.20;99.90;;;;;;4882273;29;20033;-81
2022/02/07 14:05:07;;;;;;;35.75;19.02;;;3.20;99.90;;;;;;4881963;29;20029;-80
2022/02/07 14:07:52;;;;;;;35.92;16.65;;;3.20;99.90;;;;;;4898833;29;20143;-81
2022/02/07 14:10:20;;;;;;;27.90;15.57;;;3.20;99.90;;;;;;4899127;29;20040;-80
2022/02/07 14:12:47;;;;;;;33.05;16.52;;;3.20;99.90;;;;;;4898899;29;20029;-80
2022/02/07 14:15:13;;;;;;;32.75;17.40;;;3.20;99.90;;;;;;4882003;29;20084;-81
2022/02/07 14:17:44;;;;;;;31.95;17.02;;;3.20;99.90;;;;;;4898442;29;20032;-81
2022/02/07 14:20:18;;;;;;;31.95;15.63;;;3.10;99.90;;;;;;4881759;29;20028;-81
2022/02/07 14:22:44;;;;;;;29.95;15.90;;;3.10;99.90;;;;;;4898782;29;20119;-80
2022/02/07 14:25:11;;;;;;;31.92;15.85;;;3.00;99.90;;;;;;4881502;29;20032;-82
2022/02/07 14:27:37;;;;;;;29.85;15.65;;;3.00;99.90;;;;;;4881894;29;20043;-81
2022/02/07 14:30:04;;;;;;;26.35;15.50;;;2.90;99.90;;;;;;4881751;29;20028;-80
2022/02/07 14:32:29;;;;;;;28.88;15.95;;;2.90;99.90;;;;;;4882216;29;20063;-80
2022/02/07 14:34:55;;;;;;;30.92;16.23;;;2.90;99.90;;;;;;4882140;29;20468;-81
2022/02/07 14:37:23;;;;;;;34.67;18.25;;;2.90;99.90;;;;;;4898592;29;20111;-81
2022/02/07 14:39:52;;;;;;;30.73;16.60;;;2.90;99.90;;;;;;4881136;29;20044;-80
2022/02/07 14:42:17;;;;;;;34.25;18.52;;;2.80;99.90;;;;;;4881622;29;20047;-81
2022/02/07 14:44:57;;;;;;;31.20;17.58;;;2.80;99.90;;;;;;4881701;29;20471;-80
2022/02/07 14:47:39;;;;;;;34.58;17.65;;;2.80;99.90;;;;;;4881833;29;20172;-80
2022/02/07 14:50:06;;;;;;;27.08;14.07;;;2.80;99.90;;;;;;4868919;29;20064;-81
2022/02/07 14:52:32;;;;;;;23.35;13.05;;;2.80;99.90;;;;;;4881680;29;20032;-81
2022/02/07 14:55:01;;;;;;;21.27;11.05;;;2.80;99.90;;;;;;4881514;29;20035;-80
2022/02/07 14:57:28;;;;;;;18.92;10.63;;;2.80;99.90;;;;;;4882007;29;20380;-80
2022/02/07 14:59:53;;;;;;;19.40;10.75;;;2.80;99.90;;;;;;4881154;29;20053;-80
2022/02/07 15:02:21;;;;;;;23.98;10.73;;;2.80;99.90;;;;;;4881384;29;20111;-81
2022/02/07 15:04:48;;;;;;;18.65;9.57;;;2.80;99.90;;;;;;4898030;29;20025;-81
2022/02/07 15:07:14;;;;;;;18.05;9.38;;;2.80;99.90;;;;;;4881692;29;20052;-81
2022/02/07 15:09:40;;;;;;;17.35;9.57;;;2.90;99.90;;;;;;4881375;29;20475;-81
2022/02/07 15:12:06;;;;;;;18.10;9.10;;;2.90;99.90;;;;;;4898366;29;20027;-82
2022/02/07 15:14:32;;;;;;;17.08;8.95;;;2.90;99.90;;;;;;4898194;29;20044;-82
2022/02/07 15:17:02;;;;;;;20.00;10.48;;;3.00;99.90;;;;;;4881465;29;20028;-81
2022/02/07 15:19:27;;;;;;;18.75;9.75;;;3.00;99.90;;;;;;4898479;29;20033;-80
2022/02/07 15:21:56;;;;;;;19.38;9.77;;;3.00;99.90;;;;;;4881923;29;20028;-80
2022/02/07 15:24:24;;;;;;;19.65;10.40;;;3.00;99.90;;;;;;4881286;29;20032;-81
2022/02/07 15:26:50;;;;;;;23.05;11.75;;;3.10;99.90;;;;;;4881709;29;20056;-80